sensor_id;sensor_type;location;lat;lon;timestamp;temperature;humidity
19813;DHT22;10066;48.108;11.448;2022-07-06T00:00:30;17.30;93.40
19813;DHT22;10066;48.108;11.448;2022-07-06T00:02:57;17.40;93.50
19813;DHT22;10066;48.108;11.448;2022-07-06T00:05:25;17.40;93.50
19813;DHT22;10066;48.108;11.448;2022-07-06T00:07:52;17.50;93.40
19813;DHT22;10066;48.108;11.448;2022-07-06T00:10:19;17.50;93.50
19813;DHT22;10066;48.108;11.448;2022-07-06T00:12:46;17.50;93.80
19813;DHT22;10066;48.108;11.448;2022-07-06T00:15:13;17.50;94.10
19813;DHT22;10066;48.108;11.448;2022-07-06T00:17:42;17.60;94.40
19813;DHT22;10066;48.108;11.448;2022-07-06T00:20:09;17.60;94.50
19813;DHT22;10066;48.108;11.448;2022-07-06T00:22:37;17.60;94.40
19813;DHT22;10066;48.108;11.448;2022-07-06T00:25:04;17.60;94.60
19813;DHT22;10066;48.108;11.448;2022-07-06T00:27:32;17.70;94.90
19813;DHT22;10066;48.108;11.448;2022-07-06T00:29:59;17.60;95.20
19813;DHT22;10066;48.108;11.448;2022-07-06T00:32:26;17.60;95.30
19813;DHT22;10066;48.108;11.448;2022-07-06T00:34:55;17.60;95.80
19813;DHT22;10066;48.108;11.448;2022-07-06T00:37:22;17.60;95.80
19813;DHT22;10066;48.108;11.448;2022-07-06T00:39:49;17.60;96.20
19813;DHT22;10066;48.108;11.448;2022-07-06T00:42:17;17.60;96.20
19813;DHT22;10066;48.108;11.448;2022-07-06T00:44:44;17.50;96.40
19813;DHT22;10066;48.108;11.448;2022-07-06T00:47:11;17.40;96.70
19813;DHT22;10066;48.108;11.448;2022-07-06T00:49:38;17.30;97.10
19813;DHT22;10066;48.108;11.448;2022-07-06T00:52:24;17.20;97.50
19813;DHT22;10066;48.108;11.448;2022-07-06T00:54:52;17.10;98.10
19813;DHT22;10066;48.108;11.448;2022-07-06T00:57:22;17.00;98.50
19813;DHT22;10066;48.108;11.448;2022-07-06T00:59:52;17.00;98.90
19813;DHT22;10066;48.108;11.448;2022-07-06T01:02:19;16.90;99.30
19813;DHT22;10066;48.108;11.448;2022-07-06T01:04:48;16.90;99.80
19813;DHT22;10066;48.108;11.448;2022-07-06T01:07:15;16.80;99.90
19813;DHT22;10066;48.108;11.448;2022-07-06T01:09:44;16.80;99.90
19813;DHT22;10066;48.108;11.448;2022-07-06T01:12:11;16.80;99.90
19813;DHT22;10066;48.108;11.448;2022-07-06T01:14:38;16.80;99.90
19813;DHT22;10066;48.108;11.448;2022-07-06T01:17:06;16.70;99.90
19813;DHT22;10066;48.108;11.448;2022-07-06T01:19:34;16.70;99.90
19813;DHT22;10066;48.108;11.448;2022-07-06T01:22:03;16.70;99.90
19813;DHT22;10066;48.108;11.448;2022-07-06T01:24:30;16.60;99.90
19813;DHT22;10066;48.108;11.448;2022-07-06T01:26:57;16.60;99.90
19813;DHT22;10066;48.108;11.448;2022-07-06T01:29:25;16.50;99.90
19813;DHT22;10066;48.108;11.448;2022-07-06T01:31:52;16.40;99.90
19813;DHT22;10066;48.108;11.448;2022-07-06T01:34:19;16.40;99.90
19813;DHT22;10066;48.108;11.448;2022-07-06T01:36:46;16.30;99.90
19813;DHT22;10066;48.108;11.448;2022-07-06T01:39:15;16.30;99.90
19813;DHT22;10066;48.108;11.448;2022-07-06T01:41:42;16.20;99.90
19813;DHT22;10066;48.108;11.448;2022-07-06T01:44:09;16.20;99.90
19813;DHT22;10066;48.108;11.448;2022-07-06T01:46:37;16.10;99.90
19813;DHT22;10066;48.108;11.448;2022-07-06T01:49:04;16.00;99.90
19813;DHT22;10066;48.108;11.448;2022-07-06T01:51:31;16.00;99.90
19813;DHT22;10066;48.108;11.448;2022-07-06T01:53:58;15.90;99.90
19813;DHT22;10066;48.108;11.448;2022-07-06T01:56:27;15.90;99.90
19813;DHT22;10066;48.108;11.448;2022-07-06T01:58:54;15.80;99.90
19813;DHT22;10066;48.108;11.448;2022-07-06T02:03:58;15.70;99.90
19813;DHT22;10066;48.108;11.448;2022-07-06T02:06:25;15.70;99.90
19813;DHT22;10066;48.108;11.448;2022-07-06T02:08:52;15.60;99.90
19813;DHT22;10066;48.108;11.448;2022-07-06T02:11:19;15.60;99.90
19813;DHT22;10066;48.108;11.448;2022-07-06T02:13:48;15.60;99.90
19813;DHT22;10066;48.108;11.448;2022-07-06T02:16:16;15.50;99.90
19813;DHT22;10066;48.108;11.448;2022-07-06T02:18:43;15.50;99.90
19813;DHT22;10066;48.108;11.448;2022-07-06T02:21:10;15.50;99.90
19813;DHT22;10066;48.108;11.448;2022-07-06T02:23:37;15.40;99.90
19813;DHT22;10066;48.108;11.448;2022-07-06T02:26:05;15.40;99.90
19813;DHT22;10066;48.108;11.448;2022-07-06T02:28:33;15.40;99.90
19813;DHT22;10066;48.108;11.448;2022-07-06T02:31:01;15.40;99.90
19813;DHT22;10066;48.108;11.448;2022-07-06T02:33:28;15.30;99.90
19813;DHT22;10066;48.108;11.448;2022-07-06T02:35:56;15.30;99.90
19813;DHT22;10066;48.108;11.448;2022-07-06T02:38:23;15.30;99.90
19813;DHT22;10066;48.108;11.448;2022-07-06T02:40:50;15.30;99.90
19813;DHT22;10066;48.108;11.448;2022-07-06T02:43:17;15.30;99.90
19813;DHT22;10066;48.108;11.448;2022-07-06T02:45:44;15.20;99.90
19813;DHT22;10066;48.108;11.448;2022-07-06T02:48:13;15.20;99.90
19813;DHT22;10066;48.108;11.448;2022-07-06T02:50:40;15.20;99.90
19813;DHT22;10066;48.108;11.448;2022-07-06T02:53:07;15.20;99.90
19813;DHT22;10066;48.108;11.448;2022-07-06T02:55:34;15.10;99.90
19813;DHT22;10066;48.108;11.448;2022-07-06T02:58:02;15.10;99.90
19813;DHT22;10066;48.108;11.448;2022-07-06T03:00:29;15.10;99.90
19813;DHT22;10066;48.108;11.448;2022-07-06T03:02:56;15.00;99.90
19813;DHT22;10066;48.108;11.448;2022-07-06T03:05:24;15.00;99.90
19813;DHT22;10066;48.108;11.448;2022-07-06T03:07:51;15.00;99.90
19813;DHT22;10066;48.108;11.448;2022-07-06T03:10:18;15.00;99.90
19813;DHT22;10066;48.108;11.448;2022-07-06T03:12:45;14.90;99.90
19813;DHT22;10066;48.108;11.448;2022-07-06T03:15:12;14.90;99.90
19813;DHT22;10066;48.108;11.448;2022-07-06T03:17:40;14.90;99.90
19813;DHT22;10066;48.108;11.448;2022-07-06T03:20:07;14.90;99.90
19813;DHT22;10066;48.108;11.448;2022-07-06T03:22:36;14.90;99.90
19813;DHT22;10066;48.108;11.448;2022-07-06T03:25:04;14.80;99.90
19813;DHT22;10066;48.108;11.448;2022-07-06T03:27:31;14.80;99.90
19813;DHT22;10066;48.108;11.448;2022-07-06T03:29:59;14.80;99.90
19813;DHT22;10066;48.108;11.448;2022-07-06T03:32:26;14.80;99.90
19813;DHT22;10066;48.108;11.448;2022-07-06T03:34:53;14.80;99.90
19813;DHT22;10066;48.108;11.448;2022-07-06T03:37:21;14.80;99.90
19813;DHT22;10066;48.108;11.448;2022-07-06T03:39:50;14.80;99.90
19813;DHT22;10066;48.108;11.448;2022-07-06T03:42:19;14.70;99.90
19813;DHT22;10066;48.108;11.448;2022-07-06T03:44:46;14.70;99.90
19813;DHT22;10066;48.108;11.448;2022-07-06T03:47:13;14.70;99.90
19813;DHT22;10066;48.108;11.448;2022-07-06T03:49:40;14.70;99.90
19813;DHT22;10066;48.108;11.448;2022-07-06T03:52:07;14.60;99.90
19813;DHT22;10066;48.108;11.448;2022-07-06T03:54:34;14.70;99.90
19813;DHT22;10066;48.108;11.448;2022-07-06T03:57:03;14.70;99.90
19813;DHT22;10066;48.108;11.448;2022-07-06T03:59:30;14.70;99.90
19813;DHT22;10066;48.108;11.448;2022-07-06T04:01:57;14.70;99.90
19813;DHT22;10066;48.108;11.448;2022-07-06T04:04:25;14.70;99.90
19813;DHT22;10066;48.108;11.448;2022-07-06T04:06:51;14.80;99.90
19813;DHT22;10066;48.108;11.448;2022-07-06T04:09:19;14.80;99.90
19813;DHT22;10066;48.108;11.448;2022-07-06T04:11:45;14.90;99.90
19813;DHT22;10066;48.108;11.448;2022-07-06T04:14:14;14.90;99.90
19813;DHT22;10066;48.108;11.448;2022-07-06T04:16:42;15.40;99.90
19813;DHT22;10066;48.108;11.448;2022-07-06T04:19:09;16.30;99.90
19813;DHT22;10066;48.108;11.448;2022-07-06T04:21:36;17.20;99.90
19813;DHT22;10066;48.108;11.448;2022-07-06T04:24:04;18.10;99.90
19813;DHT22;10066;48.108;11.448;2022-07-06T04:26:31;18.80;99.90
19813;DHT22;10066;48.108;11.448;2022-07-06T04:28:58;18.60;99.90
19813;DHT22;10066;48.108;11.448;2022-07-06T04:31:27;18.40;99.90
19813;DHT22;10066;48.108;11.448;2022-07-06T04:33:53;18.20;99.90
19813;DHT22;10066;48.108;11.448;2022-07-06T04:36:22;18.10;99.90
19813;DHT22;10066;48.108;11.448;2022-07-06T04:38:49;18.00;99.90
19813;DHT22;10066;48.108;11.448;2022-07-06T04:41:16;18.10;99.90
19813;DHT22;10066;48.108;11.448;2022-07-06T04:43:45;18.20;99.90
19813;DHT22;10066;48.108;11.448;2022-07-06T04:46:11;18.30;99.90
19813;DHT22;10066;48.108;11.448;2022-07-06T04:48:40;18.30;99.90
19813;DHT22;10066;48.108;11.448;2022-07-06T04:51:07;18.30;99.90
19813;DHT22;10066;48.108;11.448;2022-07-06T04:53:34;18.20;99.90
19813;DHT22;10066;48.108;11.448;2022-07-06T04:56:02;18.20;99.90
19813;DHT22;10066;48.108;11.448;2022-07-06T04:58:30;19.00;99.90
19813;DHT22;10066;48.108;11.448;2022-07-06T05:00:57;20.20;99.90
19813;DHT22;10066;48.108;11.448;2022-07-06T05:03:25;21.00;99.90
19813;DHT22;10066;48.108;11.448;2022-07-06T05:05:53;20.70;99.90
19813;DHT22;10066;48.108;11.448;2022-07-06T05:08:21;20.80;99.90
19813;DHT22;10066;48.108;11.448;2022-07-06T05:10:48;20.80;99.90
19813;DHT22;10066;48.108;11.448;2022-07-06T05:13:15;20.60;99.90
19813;DHT22;10066;48.108;11.448;2022-07-06T05:15:42;20.50;99.90
19813;DHT22;10066;48.108;11.448;2022-07-06T05:18:09;20.20;99.90
19813;DHT22;10066;48.108;11.448;2022-07-06T05:20:36;20.00;99.90
19813;DHT22;10066;48.108;11.448;2022-07-06T05:23:04;19.90;99.90
19813;DHT22;10066;48.108;11.448;2022-07-06T05:25:31;19.70;99.90
19813;DHT22;10066;48.108;11.448;2022-07-06T05:27:58;19.60;99.90
19813;DHT22;10066;48.108;11.448;2022-07-06T05:30:26;19.60;99.90
19813;DHT22;10066;48.108;11.448;2022-07-06T05:32:53;19.50;99.90
19813;DHT22;10066;48.108;11.448;2022-07-06T05:35:20;19.60;99.90
19813;DHT22;10066;48.108;11.448;2022-07-06T05:37:47;19.60;99.90
19813;DHT22;10066;48.108;11.448;2022-07-06T05:40:16;19.60;99.90
19813;DHT22;10066;48.108;11.448;2022-07-06T05:42:43;19.60;99.90
19813;DHT22;10066;48.108;11.448;2022-07-06T05:45:10;19.70;99.90
19813;DHT22;10066;48.108;11.448;2022-07-06T05:47:37;19.80;99.90
19813;DHT22;10066;48.108;11.448;2022-07-06T05:50:21;19.80;99.90
19813;DHT22;10066;48.108;11.448;2022-07-06T05:52:56;19.90;99.90
19813;DHT22;10066;48.108;11.448;2022-07-06T05:55:33;20.00;99.90
19813;DHT22;10066;48.108;11.448;2022-07-06T05:58:00;20.00;99.90
19813;DHT22;10066;48.108;11.448;2022-07-06T06:00:28;20.00;99.90
19813;DHT22;10066;48.108;11.448;2022-07-06T06:02:55;20.00;99.90
19813;DHT22;10066;48.108;11.448;2022-07-06T06:05:22;20.00;99.90
19813;DHT22;10066;48.108;11.448;2022-07-06T06:07:49;20.00;99.90
19813;DHT22;10066;48.108;11.448;2022-07-06T06:10:17;20.00;99.90
19813;DHT22;10066;48.108;11.448;2022-07-06T06:12:47;20.00;99.90
19813;DHT22;10066;48.108;11.448;2022-07-06T06:15:15;20.00;99.90
19813;DHT22;10066;48.108;11.448;2022-07-06T06:17:44;20.00;99.90
19813;DHT22;10066;48.108;11.448;2022-07-06T06:20:12;19.90;99.90
19813;DHT22;10066;48.108;11.448;2022-07-06T06:22:47;19.90;99.90
19813;DHT22;10066;48.108;11.448;2022-07-06T06:25:15;19.90;99.90
19813;DHT22;10066;48.108;11.448;2022-07-06T06:27:43;20.10;99.90
19813;DHT22;10066;48.108;11.448;2022-07-06T06:30:12;21.20;99.90
19813;DHT22;10066;48.108;11.448;2022-07-06T06:32:40;22.60;99.90
19813;DHT22;10066;48.108;11.448;2022-07-06T06:35:08;23.80;99.90
19813;DHT22;10066;48.108;11.448;2022-07-06T06:37:35;24.80;99.70
19813;DHT22;10066;48.108;11.448;2022-07-06T06:40:03;25.70;96.10
19813;DHT22;10066;48.108;11.448;2022-07-06T06:42:31;26.40;93.50
19813;DHT22;10066;48.108;11.448;2022-07-06T06:44:58;27.10;90.90
19813;DHT22;10066;48.108;11.448;2022-07-06T06:49:54;28.20;82.40
19813;DHT22;10066;48.108;11.448;2022-07-06T06:52:23;28.60;78.50
19813;DHT22;10066;48.108;11.448;2022-07-06T06:54:50;28.80;74.30
19813;DHT22;10066;48.108;11.448;2022-07-06T06:57:16;29.10;73.50
19813;DHT22;10066;48.108;11.448;2022-07-06T06:59:44;29.40;71.60
19813;DHT22;10066;48.108;11.448;2022-07-06T07:02:11;29.60;69.40
19813;DHT22;10066;48.108;11.448;2022-07-06T07:04:40;29.70;67.10
19813;DHT22;10066;48.108;11.448;2022-07-06T07:07:07;29.80;64.40
19813;DHT22;10066;48.108;11.448;2022-07-06T07:09:34;29.60;62.80
19813;DHT22;10066;48.108;11.448;2022-07-06T07:12:01;28.80;61.10
19813;DHT22;10066;48.108;11.448;2022-07-06T07:14:29;28.20;63.10
19813;DHT22;10066;48.108;11.448;2022-07-06T07:16:58;27.30;65.70
19813;DHT22;10066;48.108;11.448;2022-07-06T07:19:25;26.30;67.40
19813;DHT22;10066;48.108;11.448;2022-07-06T07:21:54;25.40;69.80
19813;DHT22;10066;48.108;11.448;2022-07-06T07:24:21;24.70;71.90
19813;DHT22;10066;48.108;11.448;2022-07-06T07:26:49;24.20;73.30
19813;DHT22;10066;48.108;11.448;2022-07-06T07:29:17;23.80;75.00
19813;DHT22;10066;48.108;11.448;2022-07-06T07:31:44;23.50;75.90
19813;DHT22;10066;48.108;11.448;2022-07-06T07:34:11;23.20;78.10
19813;DHT22;10066;48.108;11.448;2022-07-06T07:36:38;23.00;78.80
19813;DHT22;10066;48.108;11.448;2022-07-06T07:39:07;22.80;79.30
19813;DHT22;10066;48.108;11.448;2022-07-06T07:41:34;22.70;77.20
19813;DHT22;10066;48.108;11.448;2022-07-06T07:44:01;22.60;77.20
19813;DHT22;10066;48.108;11.448;2022-07-06T07:46:29;22.50;76.60
19813;DHT22;10066;48.108;11.448;2022-07-06T07:48:55;22.50;76.80
19813;DHT22;10066;48.108;11.448;2022-07-06T07:51:22;22.50;77.70
19813;DHT22;10066;48.108;11.448;2022-07-06T07:53:50;22.50;77.00
19813;DHT22;10066;48.108;11.448;2022-07-06T07:56:18;22.50;75.10
19813;DHT22;10066;48.108;11.448;2022-07-06T07:58:46;22.50;77.30
19813;DHT22;10066;48.108;11.448;2022-07-06T08:01:14;22.50;76.70
19813;DHT22;10066;48.108;11.448;2022-07-06T08:03:42;22.60;76.20
19813;DHT22;10066;48.108;11.448;2022-07-06T08:06:10;22.60;75.30
19813;DHT22;10066;48.108;11.448;2022-07-06T08:08:39;22.40;72.40
19813;DHT22;10066;48.108;11.448;2022-07-06T08:11:06;22.20;71.90
19813;DHT22;10066;48.108;11.448;2022-07-06T08:13:37;22.10;72.20
19813;DHT22;10066;48.108;11.448;2022-07-06T08:16:04;22.10;73.10
19813;DHT22;10066;48.108;11.448;2022-07-06T08:18:31;22.10;73.90
19813;DHT22;10066;48.108;11.448;2022-07-06T08:20:59;22.10;73.00
19813;DHT22;10066;48.108;11.448;2022-07-06T08:23:26;22.00;72.80
19813;DHT22;10066;48.108;11.448;2022-07-06T08:25:54;21.90;74.10
19813;DHT22;10066;48.108;11.448;2022-07-06T08:28:21;22.00;76.10
19813;DHT22;10066;48.108;11.448;2022-07-06T08:30:50;22.00;76.20
19813;DHT22;10066;48.108;11.448;2022-07-06T08:33:16;22.20;76.90
19813;DHT22;10066;48.108;11.448;2022-07-06T08:35:43;22.30;76.80
19813;DHT22;10066;48.108;11.448;2022-07-06T08:38:11;22.30;76.10
19813;DHT22;10066;48.108;11.448;2022-07-06T08:40:40;22.40;77.20
19813;DHT22;10066;48.108;11.448;2022-07-06T08:43:07;22.50;77.70
19813;DHT22;10066;48.108;11.448;2022-07-06T08:45:34;22.60;77.90
19813;DHT22;10066;48.108;11.448;2022-07-06T08:48:05;22.60;77.10
19813;DHT22;10066;48.108;11.448;2022-07-06T08:50:33;22.50;75.10
19813;DHT22;10066;48.108;11.448;2022-07-06T08:53:00;22.50;75.80
19813;DHT22;10066;48.108;11.448;2022-07-06T08:55:28;22.40;75.70
19813;DHT22;10066;48.108;11.448;2022-07-06T08:57:56;22.40;74.50
19813;DHT22;10066;48.108;11.448;2022-07-06T09:00:24;22.40;75.50
19813;DHT22;10066;48.108;11.448;2022-07-06T09:02:52;22.40;75.00
19813;DHT22;10066;48.108;11.448;2022-07-06T09:05:25;22.60;75.90
19813;DHT22;10066;48.108;11.448;2022-07-06T09:07:53;22.60;74.80
19813;DHT22;10066;48.108;11.448;2022-07-06T09:10:21;22.60;72.80
19813;DHT22;10066;48.108;11.448;2022-07-06T09:12:49;22.60;71.50
19813;DHT22;10066;48.108;11.448;2022-07-06T09:15:16;22.40;72.10
19813;DHT22;10066;48.108;11.448;2022-07-06T09:17:44;22.50;72.40
19813;DHT22;10066;48.108;11.448;2022-07-06T09:20:12;22.40;71.60
19813;DHT22;10066;48.108;11.448;2022-07-06T09:22:41;22.40;73.10
19813;DHT22;10066;48.108;11.448;2022-07-06T09:25:10;22.50;73.80
19813;DHT22;10066;48.108;11.448;2022-07-06T09:27:39;22.60;75.30
19813;DHT22;10066;48.108;11.448;2022-07-06T09:30:07;22.80;74.40
19813;DHT22;10066;48.108;11.448;2022-07-06T09:32:39;22.90;74.20
19813;DHT22;10066;48.108;11.448;2022-07-06T09:35:07;22.90;71.80
19813;DHT22;10066;48.108;11.448;2022-07-06T09:37:34;22.90;71.80
19813;DHT22;10066;48.108;11.448;2022-07-06T09:40:15;23.00;72.90
19813;DHT22;10066;48.108;11.448;2022-07-06T09:42:43;23.10;70.70
19813;DHT22;10066;48.108;11.448;2022-07-06T09:45:10;23.10;71.40
19813;DHT22;10066;48.108;11.448;2022-07-06T09:47:37;23.10;71.40
19813;DHT22;10066;48.108;11.448;2022-07-06T09:50:07;23.10;70.60
19813;DHT22;10066;48.108;11.448;2022-07-06T09:52:35;23.00;71.40
19813;DHT22;10066;48.108;11.448;2022-07-06T09:55:14;23.00;70.10
19813;DHT22;10066;48.108;11.448;2022-07-06T09:57:52;23.10;71.40
19813;DHT22;10066;48.108;11.448;2022-07-06T10:00:20;23.10;70.10
19813;DHT22;10066;48.108;11.448;2022-07-06T10:02:48;23.00;68.30
19813;DHT22;10066;48.108;11.448;2022-07-06T10:05:18;23.00;69.30
19813;DHT22;10066;48.108;11.448;2022-07-06T10:07:46;23.20;68.90
19813;DHT22;10066;48.108;11.448;2022-07-06T10:10:18;23.40;68.40
19813;DHT22;10066;48.108;11.448;2022-07-06T10:12:46;23.60;70.90
19813;DHT22;10066;48.108;11.448;2022-07-06T10:15:16;23.70;70.10
19813;DHT22;10066;48.108;11.448;2022-07-06T10:17:44;23.90;71.00
19813;DHT22;10066;48.108;11.448;2022-07-06T10:20:13;24.00;70.30
19813;DHT22;10066;48.108;11.448;2022-07-06T10:22:41;24.00;68.80
19813;DHT22;10066;48.108;11.448;2022-07-06T10:25:10;23.90;66.70
19813;DHT22;10066;48.108;11.448;2022-07-06T10:27:39;23.90;66.80
19813;DHT22;10066;48.108;11.448;2022-07-06T10:30:08;23.90;66.80
19813;DHT22;10066;48.108;11.448;2022-07-06T10:32:36;23.80;65.80
19813;DHT22;10066;48.108;11.448;2022-07-06T10:35:05;23.90;68.10
19813;DHT22;10066;48.108;11.448;2022-07-06T10:37:32;24.00;69.80
19813;DHT22;10066;48.108;11.448;2022-07-06T10:40:00;24.00;67.70
19813;DHT22;10066;48.108;11.448;2022-07-06T10:42:47;24.10;68.30
19813;DHT22;10066;48.108;11.448;2022-07-06T10:45:20;24.20;69.90
19813;DHT22;10066;48.108;11.448;2022-07-06T10:48:17;24.20;64.80
19813;DHT22;10066;48.108;11.448;2022-07-06T10:50:48;24.20;64.50
19813;DHT22;10066;48.108;11.448;2022-07-06T10:53:17;24.10;65.60
19813;DHT22;10066;48.108;11.448;2022-07-06T10:55:46;24.10;63.80
19813;DHT22;10066;48.108;11.448;2022-07-06T10:58:38;24.10;64.20
19813;DHT22;10066;48.108;11.448;2022-07-06T11:01:07;24.00;64.40
19813;DHT22;10066;48.108;11.448;2022-07-06T11:03:39;24.10;62.40
19813;DHT22;10066;48.108;11.448;2022-07-06T11:06:09;23.90;62.40
19813;DHT22;10066;48.108;11.448;2022-07-06T11:08:54;23.60;63.30
19813;DHT22;10066;48.108;11.448;2022-07-06T11:11:23;23.60;63.90
19813;DHT22;10066;48.108;11.448;2022-07-06T11:13:54;23.50;64.40
19813;DHT22;10066;48.108;11.448;2022-07-06T11:16:23;23.70;64.70
19813;DHT22;10066;48.108;11.448;2022-07-06T11:19:06;23.90;65.50
19813;DHT22;10066;48.108;11.448;2022-07-06T11:21:39;24.10;66.10
19813;DHT22;10066;48.108;11.448;2022-07-06T11:24:09;24.30;66.10
19813;DHT22;10066;48.108;11.448;2022-07-06T11:26:37;24.50;67.10
19813;DHT22;10066;48.108;11.448;2022-07-06T11:29:09;24.60;66.10
19813;DHT22;10066;48.108;11.448;2022-07-06T11:31:37;24.70;64.50
19813;DHT22;10066;48.108;11.448;2022-07-06T11:34:05;24.60;63.40
19813;DHT22;10066;48.108;11.448;2022-07-06T11:36:33;24.60;62.80
19813;DHT22;10066;48.108;11.448;2022-07-06T11:39:00;24.60;61.90
19813;DHT22;10066;48.108;11.448;2022-07-06T11:41:27;24.60;63.30
19813;DHT22;10066;48.108;11.448;2022-07-06T11:43:54;24.70;63.50
19813;DHT22;10066;48.108;11.448;2022-07-06T11:46:25;24.70;61.30
19813;DHT22;10066;48.108;11.448;2022-07-06T11:48:54;24.70;63.00
19813;DHT22;10066;48.108;11.448;2022-07-06T11:51:23;24.70;63.30
19813;DHT22;10066;48.108;11.448;2022-07-06T11:53:51;24.90;62.30
19813;DHT22;10066;48.108;11.448;2022-07-06T11:56:19;24.90;61.50
19813;DHT22;10066;48.108;11.448;2022-07-06T11:58:49;24.90;61.50
19813;DHT22;10066;48.108;11.448;2022-07-06T12:01:16;24.90;60.80
19813;DHT22;10066;48.108;11.448;2022-07-06T12:03:46;24.60;60.10
19813;DHT22;10066;48.108;11.448;2022-07-06T12:06:16;24.40;61.00
19813;DHT22;10066;48.108;11.448;2022-07-06T12:08:45;24.40;62.20
19813;DHT22;10066;48.108;11.448;2022-07-06T12:11:25;24.50;63.00
19813;DHT22;10066;48.108;11.448;2022-07-06T12:13:54;24.30;60.60
19813;DHT22;10066;48.108;11.448;2022-07-06T12:16:29;24.10;61.00
19813;DHT22;10066;48.108;11.448;2022-07-06T12:18:58;24.00;60.90
19813;DHT22;10066;48.108;11.448;2022-07-06T12:21:25;24.00;62.00
19813;DHT22;10066;48.108;11.448;2022-07-06T12:23:54;24.10;62.10
19813;DHT22;10066;48.108;11.448;2022-07-06T12:26:22;24.10;60.90
19813;DHT22;10066;48.108;11.448;2022-07-06T12:29:01;24.10;61.00
19813;DHT22;10066;48.108;11.448;2022-07-06T12:31:34;24.10;60.90
19813;DHT22;10066;48.108;11.448;2022-07-06T12:34:03;24.10;61.00
19813;DHT22;10066;48.108;11.448;2022-07-06T12:36:31;24.10;61.30
19813;DHT22;10066;48.108;11.448;2022-07-06T12:38:58;24.00;60.90
19813;DHT22;10066;48.108;11.448;2022-07-06T12:41:30;23.90;60.50
19813;DHT22;10066;48.108;11.448;2022-07-06T12:44:07;23.90;60.20
19813;DHT22;10066;48.108;11.448;2022-07-06T12:46:36;23.90;61.20
19813;DHT22;10066;48.108;11.448;2022-07-06T12:49:13;24.00;61.10
19813;DHT22;10066;48.108;11.448;2022-07-06T12:51:56;23.90;59.30
19813;DHT22;10066;48.108;11.448;2022-07-06T12:54:25;24.00;60.20
19813;DHT22;10066;48.108;11.448;2022-07-06T12:57:01;24.10;60.20
19813;DHT22;10066;48.108;11.448;2022-07-06T12:59:29;24.20;59.80
19813;DHT22;10066;48.108;11.448;2022-07-06T13:01:57;24.20;58.70
19813;DHT22;10066;48.108;11.448;2022-07-06T13:04:27;24.10;57.20
19813;DHT22;10066;48.108;11.448;2022-07-06T13:06:55;24.30;58.20
19813;DHT22;10066;48.108;11.448;2022-07-06T13:09:22;24.40;58.70
19813;DHT22;10066;48.108;11.448;2022-07-06T13:11:50;24.50;59.00
19813;DHT22;10066;48.108;11.448;2022-07-06T13:14:17;24.80;59.10
19813;DHT22;10066;48.108;11.448;2022-07-06T13:16:46;25.00;59.50
19813;DHT22;10066;48.108;11.448;2022-07-06T13:19:13;25.20;59.60
19813;DHT22;10066;48.108;11.448;2022-07-06T13:21:42;25.40;59.90
19813;DHT22;10066;48.108;11.448;2022-07-06T13:24:10;25.50;59.50
19813;DHT22;10066;48.108;11.448;2022-07-06T13:26:37;25.60;58.20
19813;DHT22;10066;48.108;11.448;2022-07-06T13:29:04;25.30;57.10
19813;DHT22;10066;48.108;11.448;2022-07-06T13:31:31;25.30;58.10
19813;DHT22;10066;48.108;11.448;2022-07-06T13:33:58;25.30;58.90
19813;DHT22;10066;48.108;11.448;2022-07-06T13:36:26;25.30;60.10
19813;DHT22;10066;48.108;11.448;2022-07-06T13:38:54;25.30;57.80
19813;DHT22;10066;48.108;11.448;2022-07-06T13:41:22;25.30;57.00
19813;DHT22;10066;48.108;11.448;2022-07-06T13:43:49;25.30;57.50
19813;DHT22;10066;48.108;11.448;2022-07-06T13:46:16;25.30;57.10
19813;DHT22;10066;48.108;11.448;2022-07-06T13:48:43;25.30;57.80
19813;DHT22;10066;48.108;11.448;2022-07-06T13:51:11;25.40;58.10
19813;DHT22;10066;48.108;11.448;2022-07-06T13:53:38;25.40;58.20
19813;DHT22;10066;48.108;11.448;2022-07-06T13:56:07;25.30;57.60
19813;DHT22;10066;48.108;11.448;2022-07-06T13:58:35;25.40;58.00
19813;DHT22;10066;48.108;11.448;2022-07-06T14:01:03;25.40;57.60
19813;DHT22;10066;48.108;11.448;2022-07-06T14:03:31;25.50;57.80
19813;DHT22;10066;48.108;11.448;2022-07-06T14:05:59;25.40;56.50
19813;DHT22;10066;48.108;11.448;2022-07-06T14:08:27;25.50;56.50
19813;DHT22;10066;48.108;11.448;2022-07-06T14:10:54;25.30;54.60
19813;DHT22;10066;48.108;11.448;2022-07-06T14:13:23;25.20;55.00
19813;DHT22;10066;48.108;11.448;2022-07-06T14:18:17;25.10;80.20
19813;DHT22;10066;48.108;11.448;2022-07-06T14:20:45;25.10;56.30
19813;DHT22;10066;48.108;11.448;2022-07-06T14:23:12;24.90;57.00
19813;DHT22;10066;48.108;11.448;2022-07-06T14:25:40;25.00;57.90
19813;DHT22;10066;48.108;11.448;2022-07-06T14:28:08;25.00;58.20
19813;DHT22;10066;48.108;11.448;2022-07-06T14:30:37;25.10;58.00
19813;DHT22;10066;48.108;11.448;2022-07-06T14:33:06;25.10;56.90
19813;DHT22;10066;48.108;11.448;2022-07-06T14:35:34;25.00;56.60
19813;DHT22;10066;48.108;11.448;2022-07-06T14:38:02;25.20;56.60
19813;DHT22;10066;48.108;11.448;2022-07-06T14:40:29;25.20;56.60
19813;DHT22;10066;48.108;11.448;2022-07-06T14:42:57;25.20;56.30
19813;DHT22;10066;48.108;11.448;2022-07-06T14:45:25;25.10;56.20
19813;DHT22;10066;48.108;11.448;2022-07-06T14:47:54;25.00;56.40
19813;DHT22;10066;48.108;11.448;2022-07-06T14:50:21;24.90;55.80
19813;DHT22;10066;48.108;11.448;2022-07-06T14:52:50;24.90;56.10
19813;DHT22;10066;48.108;11.448;2022-07-06T14:55:17;24.90;56.90
19813;DHT22;10066;48.108;11.448;2022-07-06T14:57:44;24.90;55.60
19813;DHT22;10066;48.108;11.448;2022-07-06T15:00:12;25.00;56.20
19813;DHT22;10066;48.108;11.448;2022-07-06T15:02:40;25.10;56.20
19813;DHT22;10066;48.108;11.448;2022-07-06T15:05:10;25.10;56.00
19813;DHT22;10066;48.108;11.448;2022-07-06T15:07:38;25.00;55.40
19813;DHT22;10066;48.108;11.448;2022-07-06T15:10:06;24.90;54.90
19813;DHT22;10066;48.108;11.448;2022-07-06T15:12:34;24.90;54.70
19813;DHT22;10066;48.108;11.448;2022-07-06T15:15:01;24.80;55.20
19813;DHT22;10066;48.108;11.448;2022-07-06T15:17:28;24.80;55.10
19813;DHT22;10066;48.108;11.448;2022-07-06T15:19:57;25.00;56.20
19813;DHT22;10066;48.108;11.448;2022-07-06T15:22:27;25.10;56.20
19813;DHT22;10066;48.108;11.448;2022-07-06T15:24:54;24.90;54.20
19813;DHT22;10066;48.108;11.448;2022-07-06T15:27:22;24.70;54.40
19813;DHT22;10066;48.108;11.448;2022-07-06T15:29:49;24.60;54.40